sensor_id;sensor_type;location;lat;lon;timestamp;temperature;humidity
34492;DHT22;20737;49.908;8.126;2022-07-21T00:01:39;21.90;99.90
34492;DHT22;20737;49.908;8.126;2022-07-21T00:04:06;22.00;99.90
34492;DHT22;20737;49.908;8.126;2022-07-21T00:06:32;22.00;99.90
34492;DHT22;20737;49.908;8.126;2022-07-21T00:08:59;21.90;99.90
34492;DHT22;20737;49.908;8.126;2022-07-21T00:11:26;22.00;99.90
34492;DHT22;20737;49.908;8.126;2022-07-21T00:13:53;22.00;99.90
34492;DHT22;20737;49.908;8.126;2022-07-21T00:16:21;21.90;99.90
34492;DHT22;20737;49.908;8.126;2022-07-21T00:18:48;21.80;99.90
34492;DHT22;20737;49.908;8.126;2022-07-21T00:21:15;21.70;99.90
34492;DHT22;20737;49.908;8.126;2022-07-21T00:23:41;21.60;99.90
34492;DHT22;20737;49.908;8.126;2022-07-21T00:26:08;21.60;99.90
34492;DHT22;20737;49.908;8.126;2022-07-21T00:28:35;21.60;99.90
34492;DHT22;20737;49.908;8.126;2022-07-21T00:31:02;21.60;99.90
34492;DHT22;20737;49.908;8.126;2022-07-21T00:33:30;21.60;99.90
34492;DHT22;20737;49.908;8.126;2022-07-21T00:35:57;21.70;99.90
34492;DHT22;20737;49.908;8.126;2022-07-21T00:38:24;21.70;99.90
34492;DHT22;20737;49.908;8.126;2022-07-21T00:40:50;21.70;99.90
34492;DHT22;20737;49.908;8.126;2022-07-21T00:43:17;21.70;99.90
34492;DHT22;20737;49.908;8.126;2022-07-21T00:45:44;21.70;99.90
34492;DHT22;20737;49.908;8.126;2022-07-21T00:48:11;21.70;99.90
34492;DHT22;20737;49.908;8.126;2022-07-21T00:50:39;21.90;99.90
34492;DHT22;20737;49.908;8.126;2022-07-21T00:53:06;21.90;99.90
34492;DHT22;20737;49.908;8.126;2022-07-21T00:55:33;21.90;99.90
34492;DHT22;20737;49.908;8.126;2022-07-21T00:58:00;22.00;99.90
34492;DHT22;20737;49.908;8.126;2022-07-21T01:00:28;22.00;99.90
34492;DHT22;20737;49.908;8.126;2022-07-21T01:02:56;21.90;99.90
34492;DHT22;20737;49.908;8.126;2022-07-21T01:05:24;21.90;99.90
34492;DHT22;20737;49.908;8.126;2022-07-21T01:07:54;21.80;99.90
34492;DHT22;20737;49.908;8.126;2022-07-21T01:10:24;21.80;99.90
34492;DHT22;20737;49.908;8.126;2022-07-21T01:12:51;21.80;99.90
34492;DHT22;20737;49.908;8.126;2022-07-21T01:15:19;21.70;99.90
34492;DHT22;20737;49.908;8.126;2022-07-21T01:17:46;21.70;99.90
34492;DHT22;20737;49.908;8.126;2022-07-21T01:20:14;21.70;99.90
34492;DHT22;20737;49.908;8.126;2022-07-21T01:22:45;21.70;99.90
34492;DHT22;20737;49.908;8.126;2022-07-21T01:25:12;21.60;99.90
34492;DHT22;20737;49.908;8.126;2022-07-21T01:27:39;21.50;99.90
34492;DHT22;20737;49.908;8.126;2022-07-21T01:30:08;21.50;99.90
34492;DHT22;20737;49.908;8.126;2022-07-21T01:32:35;21.40;99.90
34492;DHT22;20737;49.908;8.126;2022-07-21T01:35:03;21.40;99.90
34492;DHT22;20737;49.908;8.126;2022-07-21T01:37:30;21.40;99.90
34492;DHT22;20737;49.908;8.126;2022-07-21T01:39:59;21.40;99.90
34492;DHT22;20737;49.908;8.126;2022-07-21T01:42:43;21.30;99.90
34492;DHT22;20737;49.908;8.126;2022-07-21T01:45:10;21.20;99.90
34492;DHT22;20737;49.908;8.126;2022-07-21T01:47:37;21.20;99.90
34492;DHT22;20737;49.908;8.126;2022-07-21T01:50:05;21.10;99.90
34492;DHT22;20737;49.908;8.126;2022-07-21T01:52:32;21.10;99.90
34492;DHT22;20737;49.908;8.126;2022-07-21T01:55:00;21.10;99.90
34492;DHT22;20737;49.908;8.126;2022-07-21T01:57:26;21.00;99.90
34492;DHT22;20737;49.908;8.126;2022-07-21T01:59:53;21.10;99.90
34492;DHT22;20737;49.908;8.126;2022-07-21T02:02:20;21.00;99.90
34492;DHT22;20737;49.908;8.126;2022-07-21T02:04:47;20.90;99.90
34492;DHT22;20737;49.908;8.126;2022-07-21T02:07:14;20.80;99.90
34492;DHT22;20737;49.908;8.126;2022-07-21T02:09:41;20.80;99.90
34492;DHT22;20737;49.908;8.126;2022-07-21T02:12:09;20.80;99.90
34492;DHT22;20737;49.908;8.126;2022-07-21T02:14:36;20.80;99.90
34492;DHT22;20737;49.908;8.126;2022-07-21T02:17:03;20.80;99.90
34492;DHT22;20737;49.908;8.126;2022-07-21T02:19:30;20.80;99.90
34492;DHT22;20737;49.908;8.126;2022-07-21T02:21:56;20.70;99.90
34492;DHT22;20737;49.908;8.126;2022-07-21T02:24:23;20.70;99.90
34492;DHT22;20737;49.908;8.126;2022-07-21T02:26:50;20.60;99.90
34492;DHT22;20737;49.908;8.126;2022-07-21T02:29:18;20.60;99.90
34492;DHT22;20737;49.908;8.126;2022-07-21T02:31:45;20.60;99.90
34492;DHT22;20737;49.908;8.126;2022-07-21T02:34:12;20.60;99.90
34492;DHT22;20737;49.908;8.126;2022-07-21T02:36:38;20.50;99.90
34492;DHT22;20737;49.908;8.126;2022-07-21T02:39:06;20.50;99.90
34492;DHT22;20737;49.908;8.126;2022-07-21T02:41:32;20.50;99.90
34492;DHT22;20737;49.908;8.126;2022-07-21T02:43:59;20.50;99.90
34492;DHT22;20737;49.908;8.126;2022-07-21T02:46:27;20.50;99.90
34492;DHT22;20737;49.908;8.126;2022-07-21T02:48:54;20.50;99.90
34492;DHT22;20737;49.908;8.126;2022-07-21T02:51:21;20.50;99.90
34492;DHT22;20737;49.908;8.126;2022-07-21T02:53:47;20.50;99.90
34492;DHT22;20737;49.908;8.126;2022-07-21T02:56:15;20.50;99.90
34492;DHT22;20737;49.908;8.126;2022-07-21T02:58:42;20.40;99.90
34492;DHT22;20737;49.908;8.126;2022-07-21T03:01:08;20.40;99.90
34492;DHT22;20737;49.908;8.126;2022-07-21T03:03:37;20.30;99.90
34492;DHT22;20737;49.908;8.126;2022-07-21T03:06:04;20.40;99.90
34492;DHT22;20737;49.908;8.126;2022-07-21T03:08:31;20.40;99.90
34492;DHT22;20737;49.908;8.126;2022-07-21T03:10:58;20.40;99.90
34492;DHT22;20737;49.908;8.126;2022-07-21T03:13:25;20.30;99.90
34492;DHT22;20737;49.908;8.126;2022-07-21T03:15:52;20.30;99.90
34492;DHT22;20737;49.908;8.126;2022-07-21T03:18:19;20.10;99.90
34492;DHT22;20737;49.908;8.126;2022-07-21T03:20:48;20.00;99.90
34492;DHT22;20737;49.908;8.126;2022-07-21T03:23:14;20.00;99.90
34492;DHT22;20737;49.908;8.126;2022-07-21T03:25:41;20.00;99.90
34492;DHT22;20737;49.908;8.126;2022-07-21T03:28:08;19.90;99.90
34492;DHT22;20737;49.908;8.126;2022-07-21T03:30:35;19.80;99.90
34492;DHT22;20737;49.908;8.126;2022-07-21T03:33:02;19.80;99.90
34492;DHT22;20737;49.908;8.126;2022-07-21T03:35:29;19.80;99.90
34492;DHT22;20737;49.908;8.126;2022-07-21T03:37:59;19.70;99.90
34492;DHT22;20737;49.908;8.126;2022-07-21T03:40:27;19.70;99.90
34492;DHT22;20737;49.908;8.126;2022-07-21T03:42:57;19.70;99.90
34492;DHT22;20737;49.908;8.126;2022-07-21T03:45:25;19.70;99.90
34492;DHT22;20737;49.908;8.126;2022-07-21T03:47:55;19.80;99.90
34492;DHT22;20737;49.908;8.126;2022-07-21T03:50:22;19.70;99.90
34492;DHT22;20737;49.908;8.126;2022-07-21T03:52:49;19.80;99.90
34492;DHT22;20737;49.908;8.126;2022-07-21T03:55:17;19.80;99.90
34492;DHT22;20737;49.908;8.126;2022-07-21T03:57:48;19.90;99.90
34492;DHT22;20737;49.908;8.126;2022-07-21T04:00:17;19.90;99.90
34492;DHT22;20737;49.908;8.126;2022-07-21T04:02:45;20.00;99.90
34492;DHT22;20737;49.908;8.126;2022-07-21T04:05:13;20.00;99.90
34492;DHT22;20737;49.908;8.126;2022-07-21T04:07:41;20.10;99.90
34492;DHT22;20737;49.908;8.126;2022-07-21T04:10:10;20.00;99.90
34492;DHT22;20737;49.908;8.126;2022-07-21T04:12:38;20.00;99.90
34492;DHT22;20737;49.908;8.126;2022-07-21T04:15:07;20.00;99.90
34492;DHT22;20737;49.908;8.126;2022-07-21T04:17:34;19.90;99.90
34492;DHT22;20737;49.908;8.126;2022-07-21T04:20:03;19.90;99.90
34492;DHT22;20737;49.908;8.126;2022-07-21T04:22:30;19.90;99.90
34492;DHT22;20737;49.908;8.126;2022-07-21T04:24:57;19.80;99.90
34492;DHT22;20737;49.908;8.126;2022-07-21T04:27:25;19.80;99.90
34492;DHT22;20737;49.908;8.126;2022-07-21T04:29:53;19.80;99.90
34492;DHT22;20737;49.908;8.126;2022-07-21T04:32:20;19.80;99.90
34492;DHT22;20737;49.908;8.126;2022-07-21T04:34:47;19.70;99.90
34492;DHT22;20737;49.908;8.126;2022-07-21T04:37:13;19.70;99.90
34492;DHT22;20737;49.908;8.126;2022-07-21T04:39:40;19.80;99.90
34492;DHT22;20737;49.908;8.126;2022-07-21T04:42:07;20.00;99.90
34492;DHT22;20737;49.908;8.126;2022-07-21T04:44:34;20.10;99.90
34492;DHT22;20737;49.908;8.126;2022-07-21T04:47:02;20.30;99.90
34492;DHT22;20737;49.908;8.126;2022-07-21T04:49:29;20.40;99.90
34492;DHT22;20737;49.908;8.126;2022-07-21T04:51:58;20.50;99.90
34492;DHT22;20737;49.908;8.126;2022-07-21T04:54:24;20.70;99.90
34492;DHT22;20737;49.908;8.126;2022-07-21T04:56:51;20.80;99.90
34492;DHT22;20737;49.908;8.126;2022-07-21T04:59:18;20.90;99.90
34492;DHT22;20737;49.908;8.126;2022-07-21T05:01:45;20.70;99.90
34492;DHT22;20737;49.908;8.126;2022-07-21T05:04:13;20.60;99.90
34492;DHT22;20737;49.908;8.126;2022-07-21T05:06:40;20.50;99.90
34492;DHT22;20737;49.908;8.126;2022-07-21T05:09:07;20.40;99.90
34492;DHT22;20737;49.908;8.126;2022-07-21T05:11:34;20.40;99.90
34492;DHT22;20737;49.908;8.126;2022-07-21T05:14:01;20.30;99.90
34492;DHT22;20737;49.908;8.126;2022-07-21T05:16:29;20.10;99.90
34492;DHT22;20737;49.908;8.126;2022-07-21T05:18:55;20.20;99.90
34492;DHT22;20737;49.908;8.126;2022-07-21T05:21:23;20.10;99.90
34492;DHT22;20737;49.908;8.126;2022-07-21T05:23:50;20.10;99.90
34492;DHT22;20737;49.908;8.126;2022-07-21T05:26:17;20.10;99.90
34492;DHT22;20737;49.908;8.126;2022-07-21T05:28:44;20.30;99.90
34492;DHT22;20737;49.908;8.126;2022-07-21T05:31:10;20.40;99.90
34492;DHT22;20737;49.908;8.126;2022-07-21T05:33:37;20.60;99.90
34492;DHT22;20737;49.908;8.126;2022-07-21T05:36:05;20.70;99.90
34492;DHT22;20737;49.908;8.126;2022-07-21T05:38:33;21.00;99.90
34492;DHT22;20737;49.908;8.126;2022-07-21T05:41:00;21.10;99.90
34492;DHT22;20737;49.908;8.126;2022-07-21T05:43:28;21.40;99.90
34492;DHT22;20737;49.908;8.126;2022-07-21T05:45:55;21.50;99.90
34492;DHT22;20737;49.908;8.126;2022-07-21T05:48:24;21.60;99.90
34492;DHT22;20737;49.908;8.126;2022-07-21T05:50:51;21.60;99.90
34492;DHT22;20737;49.908;8.126;2022-07-21T05:53:18;21.80;99.90
34492;DHT22;20737;49.908;8.126;2022-07-21T05:55:46;22.10;99.90
34492;DHT22;20737;49.908;8.126;2022-07-21T05:58:13;22.30;99.90
34492;DHT22;20737;49.908;8.126;2022-07-21T06:00:41;22.70;99.90
34492;DHT22;20737;49.908;8.126;2022-07-21T06:03:08;22.50;99.90
34492;DHT22;20737;49.908;8.126;2022-07-21T06:05:35;22.40;99.90
34492;DHT22;20737;49.908;8.126;2022-07-21T06:08:01;22.20;99.90
34492;DHT22;20737;49.908;8.126;2022-07-21T06:10:29;22.20;99.90
34492;DHT22;20737;49.908;8.126;2022-07-21T06:12:57;22.30;99.90
34492;DHT22;20737;49.908;8.126;2022-07-21T06:15:27;22.10;99.90
34492;DHT22;20737;49.908;8.126;2022-07-21T06:17:53;22.20;99.90
34492;DHT22;20737;49.908;8.126;2022-07-21T06:20:20;22.40;99.90
34492;DHT22;20737;49.908;8.126;2022-07-21T06:22:47;22.60;99.90
34492;DHT22;20737;49.908;8.126;2022-07-21T06:25:14;22.80;99.90
34492;DHT22;20737;49.908;8.126;2022-07-21T06:27:41;22.90;99.90
34492;DHT22;20737;49.908;8.126;2022-07-21T06:30:10;23.10;99.90
34492;DHT22;20737;49.908;8.126;2022-07-21T06:32:37;23.80;99.90
34492;DHT22;20737;49.908;8.126;2022-07-21T06:35:06;24.30;99.90
34492;DHT22;20737;49.908;8.126;2022-07-21T06:37:33;25.30;99.90
34492;DHT22;20737;49.908;8.126;2022-07-21T06:40:00;25.90;99.90
34492;DHT22;20737;49.908;8.126;2022-07-21T06:42:26;26.60;99.90
34492;DHT22;20737;49.908;8.126;2022-07-21T06:44:53;27.10;99.90
34492;DHT22;20737;49.908;8.126;2022-07-21T06:47:22;27.20;99.90
34492;DHT22;20737;49.908;8.126;2022-07-21T06:49:48;26.80;99.90
34492;DHT22;20737;49.908;8.126;2022-07-21T06:52:15;26.90;99.90
34492;DHT22;20737;49.908;8.126;2022-07-21T06:54:42;27.10;99.90
34492;DHT22;20737;49.908;8.126;2022-07-21T06:57:09;27.70;99.90
34492;DHT22;20737;49.908;8.126;2022-07-21T06:59:35;27.80;99.90
34492;DHT22;20737;49.908;8.126;2022-07-21T07:02:02;28.40;99.90
34492;DHT22;20737;49.908;8.126;2022-07-21T07:04:30;28.30;99.90
34492;DHT22;20737;49.908;8.126;2022-07-21T07:06:57;28.00;99.90
34492;DHT22;20737;49.908;8.126;2022-07-21T07:09:24;28.30;99.90
34492;DHT22;20737;49.908;8.126;2022-07-21T07:11:51;28.90;99.90
34492;DHT22;20737;49.908;8.126;2022-07-21T07:14:20;28.80;99.90
34492;DHT22;20737;49.908;8.126;2022-07-21T07:16:47;27.70;99.90
34492;DHT22;20737;49.908;8.126;2022-07-21T07:19:14;27.20;99.90
34492;DHT22;20737;49.908;8.126;2022-07-21T07:21:42;27.60;99.90
34492;DHT22;20737;49.908;8.126;2022-07-21T07:24:09;28.20;99.90
34492;DHT22;20737;49.908;8.126;2022-07-21T07:26:37;27.70;99.90
34492;DHT22;20737;49.908;8.126;2022-07-21T07:29:04;27.50;99.90
34492;DHT22;20737;49.908;8.126;2022-07-21T07:31:31;28.20;99.90
34492;DHT22;20737;49.908;8.126;2022-07-21T07:33:58;28.20;99.90
34492;DHT22;20737;49.908;8.126;2022-07-21T07:36:25;28.30;99.90
34492;DHT22;20737;49.908;8.126;2022-07-21T07:38:55;27.30;99.90
34492;DHT22;20737;49.908;8.126;2022-07-21T07:41:23;26.80;99.90
34492;DHT22;20737;49.908;8.126;2022-07-21T07:43:50;27.30;99.90
34492;DHT22;20737;49.908;8.126;2022-07-21T07:46:21;27.40;99.90
34492;DHT22;20737;49.908;8.126;2022-07-21T07:48:47;28.50;99.90
34492;DHT22;20737;49.908;8.126;2022-07-21T07:51:14;28.60;99.90
34492;DHT22;20737;49.908;8.126;2022-07-21T07:53:41;28.40;99.90
34492;DHT22;20737;49.908;8.126;2022-07-21T07:56:09;27.60;99.90
34492;DHT22;20737;49.908;8.126;2022-07-21T07:58:36;27.20;99.90
34492;DHT22;20737;49.908;8.126;2022-07-21T08:01:03;27.20;99.90
34492;DHT22;20737;49.908;8.126;2022-07-21T08:03:31;26.90;99.90
34492;DHT22;20737;49.908;8.126;2022-07-21T08:05:57;26.60;99.90
34492;DHT22;20737;49.908;8.126;2022-07-21T08:08:28;27.40;99.90
34492;DHT22;20737;49.908;8.126;2022-07-21T08:10:55;27.80;99.90
34492;DHT22;20737;49.908;8.126;2022-07-21T08:13:23;28.90;99.90
34492;DHT22;20737;49.908;8.126;2022-07-21T08:15:50;29.60;99.90
34492;DHT22;20737;49.908;8.126;2022-07-21T08:18:18;29.10;99.10
34492;DHT22;20737;49.908;8.126;2022-07-21T08:20:45;29.10;98.50
34492;DHT22;20737;49.908;8.126;2022-07-21T08:23:13;28.60;99.70
34492;DHT22;20737;49.908;8.126;2022-07-21T08:25:41;27.60;99.90
34492;DHT22;20737;49.908;8.126;2022-07-21T08:28:08;27.20;99.90
34492;DHT22;20737;49.908;8.126;2022-07-21T08:30:36;26.80;99.90
34492;DHT22;20737;49.908;8.126;2022-07-21T08:33:03;26.60;99.90
34492;DHT22;20737;49.908;8.126;2022-07-21T08:35:32;26.80;99.90
34492;DHT22;20737;49.908;8.126;2022-07-21T08:38:01;27.40;99.90
34492;DHT22;20737;49.908;8.126;2022-07-21T08:40:30;27.70;99.90
34492;DHT22;20737;49.908;8.126;2022-07-21T08:43:00;27.50;99.90
34492;DHT22;20737;49.908;8.126;2022-07-21T08:45:27;27.10;99.90
34492;DHT22;20737;49.908;8.126;2022-07-21T08:47:58;27.60;99.90
34492;DHT22;20737;49.908;8.126;2022-07-21T08:50:27;28.90;99.90
34492;DHT22;20737;49.908;8.126;2022-07-21T08:52:55;28.80;96.70
34492;DHT22;20737;49.908;8.126;2022-07-21T08:55:22;28.70;96.10
34492;DHT22;20737;49.908;8.126;2022-07-21T08:57:49;28.90;94.70
34492;DHT22;20737;49.908;8.126;2022-07-21T09:00:16;28.20;96.50
34492;DHT22;20737;49.908;8.126;2022-07-21T09:02:43;28.40;98.20
34492;DHT22;20737;49.908;8.126;2022-07-21T09:05:11;29.50;95.20
34492;DHT22;20737;49.908;8.126;2022-07-21T09:07:48;29.60;93.80
34492;DHT22;20737;49.908;8.126;2022-07-21T09:10:15;29.10;93.80
34492;DHT22;20737;49.908;8.126;2022-07-21T09:12:51;29.40;94.00
34492;DHT22;20737;49.908;8.126;2022-07-21T09:15:20;30.40;91.90
34492;DHT22;20737;49.908;8.126;2022-07-21T09:18:04;29.30;90.90
34492;DHT22;20737;49.908;8.126;2022-07-21T09:20:33;29.00;94.50
34492;DHT22;20737;49.908;8.126;2022-07-21T09:23:08;30.00;92.00
34492;DHT22;20737;49.908;8.126;2022-07-21T09:25:39;31.20;88.90
34492;DHT22;20737;49.908;8.126;2022-07-21T09:28:11;30.90;87.50
34492;DHT22;20737;49.908;8.126;2022-07-21T09:30:49;31.70;88.30
34492;DHT22;20737;49.908;8.126;2022-07-21T09:33:21;31.80;84.80
34492;DHT22;20737;49.908;8.126;2022-07-21T09:35:57;32.50;83.80
34492;DHT22;20737;49.908;8.126;2022-07-21T09:38:25;31.50;79.70
34492;DHT22;20737;49.908;8.126;2022-07-21T09:40:52;30.80;84.20
34492;DHT22;20737;49.908;8.126;2022-07-21T09:43:33;30.60;85.30
34492;DHT22;20737;49.908;8.126;2022-07-21T09:46:03;29.70;85.10
34492;DHT22;20737;49.908;8.126;2022-07-21T09:48:34;31.20;85.40
34492;DHT22;20737;49.908;8.126;2022-07-21T09:51:23;33.20;78.50
34492;DHT22;20737;49.908;8.126;2022-07-21T09:53:53;33.80;71.20
34492;DHT22;20737;49.908;8.126;2022-07-21T09:56:20;34.60;71.10
34492;DHT22;20737;49.908;8.126;2022-07-21T09:58:49;34.90;65.60
34492;DHT22;20737;49.908;8.126;2022-07-21T10:01:16;32.80;68.80
34492;DHT22;20737;49.908;8.126;2022-07-21T10:03:44;31.20;74.00
34492;DHT22;20737;49.908;8.126;2022-07-21T10:06:12;31.20;74.50
34492;DHT22;20737;49.908;8.126;2022-07-21T10:08:42;32.30;70.50
34492;DHT22;20737;49.908;8.126;2022-07-21T10:11:12;32.60;68.70
34492;DHT22;20737;49.908;8.126;2022-07-21T10:13:39;32.30;70.70
34492;DHT22;20737;49.908;8.126;2022-07-21T10:16:08;31.70;68.70
34492;DHT22;20737;49.908;8.126;2022-07-21T10:18:39;31.10;70.70
34492;DHT22;20737;49.908;8.126;2022-07-21T10:21:17;31.30;71.50
34492;DHT22;20737;49.908;8.126;2022-07-21T10:23:50;32.80;69.30
34492;DHT22;20737;49.908;8.126;2022-07-21T10:26:19;33.30;63.70
34492;DHT22;20737;49.908;8.126;2022-07-21T10:28:46;34.00;62.90
34492;DHT22;20737;49.908;8.126;2022-07-21T10:31:15;35.10;61.30
34492;DHT22;20737;49.908;8.126;2022-07-21T10:33:59;35.30;58.60
34492;DHT22;20737;49.908;8.126;2022-07-21T10:36:43;35.50;58.10
34492;DHT22;20737;49.908;8.126;2022-07-21T10:39:24;35.50;57.30
34492;DHT22;20737;49.908;8.126;2022-07-21T10:41:53;35.70;57.30
34492;DHT22;20737;49.908;8.126;2022-07-21T10:44:42;34.20;57.80
34492;DHT22;20737;49.908;8.126;2022-07-21T10:47:12;34.20;58.40
34492;DHT22;20737;49.908;8.126;2022-07-21T10:49:43;34.50;56.90
34492;DHT22;20737;49.908;8.126;2022-07-21T10:55:17;35.90;54.60
34492;DHT22;20737;49.908;8.126;2022-07-21T11:00:52;35.40;54.20
34492;DHT22;20737;49.908;8.126;2022-07-21T11:03:22;34.30;52.30
34492;DHT22;20737;49.908;8.126;2022-07-21T11:06:13;34.70;52.40
34492;DHT22;20737;49.908;8.126;2022-07-21T11:08:43;35.30;53.40
34492;DHT22;20737;49.908;8.126;2022-07-21T11:11:12;35.50;51.50
34492;DHT22;20737;49.908;8.126;2022-07-21T11:14:04;35.80;51.10
34492;DHT22;20737;49.908;8.126;2022-07-21T11:16:58;36.20;49.20
34492;DHT22;20737;49.908;8.126;2022-07-21T11:19:33;34.20;51.10
34492;DHT22;20737;49.908;8.126;2022-07-21T11:22:02;32.70;54.70
34492;DHT22;20737;49.908;8.126;2022-07-21T11:24:30;33.00;56.40
34492;DHT22;20737;49.908;8.126;2022-07-21T11:27:00;34.70;53.40
34492;DHT22;20737;49.908;8.126;2022-07-21T11:29:29;35.20;50.30
34492;DHT22;20737;49.908;8.126;2022-07-21T11:31:56;35.30;50.40
34492;DHT22;20737;49.908;8.126;2022-07-21T11:34:24;35.90;51.10
34492;DHT22;20737;49.908;8.126;2022-07-21T11:36:58;35.70;48.60
34492;DHT22;20737;49.908;8.126;2022-07-21T11:39:26;36.10;48.10
34492;DHT22;20737;49.908;8.126;2022-07-21T11:41:53;35.60;48.00
34492;DHT22;20737;49.908;8.126;2022-07-21T11:44:25;34.20;49.50
34492;DHT22;20737;49.908;8.126;2022-07-21T11:46:54;33.00;52.80
34492;DHT22;20737;49.908;8.126;2022-07-21T11:49:21;32.30;53.40
34492;DHT22;20737;49.908;8.126;2022-07-21T11:51:50;31.50;56.10
34492;DHT22;20737;49.908;8.126;2022-07-21T11:54:24;31.30;56.10
34492;DHT22;20737;49.908;8.126;2022-07-21T11:56:52;32.00;56.40
34492;DHT22;20737;49.908;8.126;2022-07-21T11:59:19;31.60;55.80
34492;DHT22;20737;49.908;8.126;2022-07-21T12:02:00;32.50;55.60
34492;DHT22;20737;49.908;8.126;2022-07-21T12:04:39;34.40;51.80
34492;DHT22;20737;49.908;8.126;2022-07-21T12:07:11;34.90;50.40
34492;DHT22;20737;49.908;8.126;2022-07-21T12:09:39;34.40;50.50
34492;DHT22;20737;49.908;8.126;2022-07-21T12:12:07;34.90;49.60
34492;DHT22;20737;49.908;8.126;2022-07-21T12:14:47;34.40;49.40
34492;DHT22;20737;49.908;8.126;2022-07-21T12:17:17;34.30;49.80
34492;DHT22;20737;49.908;8.126;2022-07-21T12:19:57;33.40;51.10
34492;DHT22;20737;49.908;8.126;2022-07-21T12:22:35;32.40;52.40
34492;DHT22;20737;49.908;8.126;2022-07-21T12:25:03;32.30;53.00
34492;DHT22;20737;49.908;8.126;2022-07-21T12:27:31;33.20;52.10
34492;DHT22;20737;49.908;8.126;2022-07-21T12:29:59;33.80;52.00
34492;DHT22;20737;49.908;8.126;2022-07-21T12:32:43;32.30;53.80
34492;DHT22;20737;49.908;8.126;2022-07-21T12:35:18;31.40;54.30
34492;DHT22;20737;49.908;8.126;2022-07-21T12:38:03;30.70;55.20
34492;DHT22;20737;49.908;8.126;2022-07-21T12:40:31;31.00;55.50
34492;DHT22;20737;49.908;8.126;2022-07-21T12:43:06;30.40;56.50
34492;DHT22;20737;49.908;8.126;2022-07-21T12:45:45;30.60;58.50
34492;DHT22;20737;49.908;8.126;2022-07-21T12:48:14;30.80;56.70
34492;DHT22;20737;49.908;8.126;2022-07-21T12:50:42;31.10;58.90
34492;DHT22;20737;49.908;8.126;2022-07-21T12:53:09;31.60;58.50
34492;DHT22;20737;49.908;8.126;2022-07-21T12:55:37;31.40;56.90
34492;DHT22;20737;49.908;8.126;2022-07-21T12:58:04;31.70;57.20
34492;DHT22;20737;49.908;8.126;2022-07-21T13:00:31;31.80;54.20
34492;DHT22;20737;49.908;8.126;2022-07-21T13:02:59;31.40;54.20
34492;DHT22;20737;49.908;8.126;2022-07-21T13:05:27;31.30;55.10
34492;DHT22;20737;49.908;8.126;2022-07-21T13:07:54;31.40;54.90
34492;DHT22;20737;49.908;8.126;2022-07-21T13:10:21;31.30;55.50
34492;DHT22;20737;49.908;8.126;2022-07-21T13:12:48;31.20;56.40
34492;DHT22;20737;49.908;8.126;2022-07-21T13:15:17;31.00;57.10
34492;DHT22;20737;49.908;8.126;2022-07-21T13:17:44;31.10;57.50
34492;DHT22;20737;49.908;8.126;2022-07-21T13:20:12;31.60;56.80
34492;DHT22;20737;49.908;8.126;2022-07-21T13:22:41;31.90;55.70
34492;DHT22;20737;49.908;8.126;2022-07-21T13:25:09;31.20;57.10
34492;DHT22;20737;49.908;8.126;2022-07-21T13:27:36;30.60;57.20
34492;DHT22;20737;49.908;8.126;2022-07-21T13:30:05;30.80;58.40
34492;DHT22;20737;49.908;8.126;2022-07-21T13:32:32;31.00;57.60
34492;DHT22;20737;49.908;8.126;2022-07-21T13:34:59;31.20;57.20
34492;DHT22;20737;49.908;8.126;2022-07-21T13:37:26;31.10;57.00
34492;DHT22;20737;49.908;8.126;2022-07-21T13:39:54;31.10;57.50
34492;DHT22;20737;49.908;8.126;2022-07-21T13:42:21;31.10;57.50
34492;DHT22;20737;49.908;8.126;2022-07-21T13:44:48;31.30;58.70
34492;DHT22;20737;49.908;8.126;2022-07-21T13:47:15;31.60;57.10
34492;DHT22;20737;49.908;8.126;2022-07-21T13:49:41;31.60;55.50
34492;DHT22;20737;49.908;8.126;2022-07-21T13:52:08;31.80;54.00
34492;DHT22;20737;49.908;8.126;2022-07-21T13:54:35;31.50;54.00
34492;DHT22;20737;49.908;8.126;2022-07-21T13:57:04;31.20;55.10
34492;DHT22;20737;49.908;8.126;2022-07-21T13:59:30;31.30;55.80
34492;DHT22;20737;49.908;8.126;2022-07-21T14:01:57;31.50;56.40
34492;DHT22;20737;49.908;8.126;2022-07-21T14:04:24;31.80;56.00
34492;DHT22;20737;49.908;8.126;2022-07-21T14:06:51;31.50;55.60
34492;DHT22;20737;49.908;8.126;2022-07-21T14:09:18;31.30;56.20
34492;DHT22;20737;49.908;8.126;2022-07-21T14:11:46;30.90;57.80
34492;DHT22;20737;49.908;8.126;2022-07-21T14:14:15;30.60;57.30
34492;DHT22;20737;49.908;8.126;2022-07-21T14:16:47;30.70;59.00
34492;DHT22;20737;49.908;8.126;2022-07-21T14:19:14;31.20;59.00
34492;DHT22;20737;49.908;8.126;2022-07-21T14:21:41;31.70;58.20
34492;DHT22;20737;49.908;8.126;2022-07-21T14:24:08;31.90;56.30
34492;DHT22;20737;49.908;8.126;2022-07-21T14:26:52;32.10;56.40
34492;DHT22;20737;49.908;8.126;2022-07-21T14:29:20;31.90;56.20
34492;DHT22;20737;49.908;8.126;2022-07-21T14:31:47;31.70;56.30
34492;DHT22;20737;49.908;8.126;2022-07-21T14:34:14;32.20;56.80
34492;DHT22;20737;49.908;8.126;2022-07-21T14:36:41;31.90;55.70
34492;DHT22;20737;49.908;8.126;2022-07-21T14:39:08;31.80;56.40
34492;DHT22;20737;49.908;8.126;2022-07-21T14:41:36;31.90;57.10
34492;DHT22;20737;49.908;8.126;2022-07-21T14:44:03;32.00;57.10
34492;DHT22;20737;49.908;8.126;2022-07-21T14:46:31;31.80;56.30
34492;DHT22;20737;49.908;8.126;2022-07-21T14:48:58;31.70;59.10
34492;DHT22;20737;49.908;8.126;2022-07-21T14:51:25;31.60;57.20
34492;DHT22;20737;49.908;8.126;2022-07-21T14:53:52;31.60;57.40
34492;DHT22;20737;49.908;8.126;2022-07-21T14:56:19;31.50;56.80
34492;DHT22;20737;49.908;8.126;2022-07-21T14:58:46;31.50;56.90
34492;DHT22;20737;49.908;8.126;2022-07-21T15:01:13;31.60;57.10
34492;DHT22;20737;49.908;8.126;2022-07-21T15:03:54;31.50;56.70
34492;DHT22;20737;49.908;8.126;2022-07-21T15:06:21;31.40;56.20
34492;DHT22;20737;49.908;8.126;2022-07-21T15:08:48;31.20;56.90
34492;DHT22;20737;49.908;8.126;2022-07-21T15:11:15;31.00;56.70
34492;DHT22;20737;49.908;8.126;2022-07-21T15:13:43;30.70;57.10
34492;DHT22;20737;49.908;8.126;2022-07-21T15:16:10;30.90;57.30
34492;DHT22;20737;49.908;8.126;2022-07-21T15:18:37;30.70;57.60
34492;DHT22;20737;49.908;8.126;2022-07-21T15:21:05;30.30;58.70
34492;DHT22;20737;49.908;8.126;2022-07-21T15:23:32;30.10;59.20
34492;DHT22;20737;49.908;8.126;2022-07-21T15:25:59;29.70;59.90
34492;DHT22;20737;49.908;8.126;2022-07-21T15:28:26;29.60;60.60
34492;DHT22;20737;49.908;8.126;2022-07-21T15:30:53;29.60;60.20
34492;DHT22;20737;49.908;8.126;2022-07-21T15:33:20;29.30;60.20
34492;DHT22;20737;49.908;8.126;2022-07-21T15:35:47;29.20;61.20
34492;DHT22;20737;49.908;8.126;2022-07-21T15:38:16;28.80;61.80
34492;DHT22;20737;49.908;8.126;2022-07-21T15:40:42;28.90;61.80
34492;DHT22;20737;49.908;8.126;2022-07-21T15:43:09;28.90;62.60
34492;DHT22;20737;49.908;8.126;2022-07-21T15:45:36;29.50;62.60